createdAt,value
2019-04-29T00:02:29.369Z,10.30
2019-04-29T00:04:59.544Z,10.30
2019-04-29T00:07:39.642Z,10.40
2019-04-29T00:10:11.346Z,10.30
2019-04-29T00:12:41.397Z,10.40
2019-04-29T00:15:38.861Z,10.30
2019-04-29T00:18:14.265Z,10.30
2019-04-29T00:20:50.409Z,10.30
2019-04-29T00:23:20.787Z,10.30
2019-04-29T00:25:51.513Z,10.30
2019-04-29T00:28:29.748Z,10.20
2019-04-29T00:31:00.606Z,10.30
2019-04-29T00:33:31.824Z,10.20
2019-04-29T00:36:02.897Z,10.20
2019-04-29T00:38:48.241Z,10.20
2019-04-29T00:41:30.641Z,10.20
2019-04-29T00:44:07.072Z,10.20
2019-04-29T00:46:37.421Z,10.20
2019-04-29T00:49:07.789Z,10.20
2019-04-29T00:51:42.207Z,10.20
2019-04-29T00:54:22.150Z,10.10
2019-04-29T00:56:52.221Z,10.20
2019-04-29T00:59:22.565Z,10.20
2019-04-29T01:01:58.823Z,10.20
2019-04-29T01:04:28.894Z,10.20
2019-04-29T01:06:58.960Z,10.10
2019-04-29T01:09:32.001Z,10.10
2019-04-29T01:12:02.396Z,10.00
2019-04-29T01:14:36.111Z,10.00
2019-04-29T01:17:06.169Z,9.80
2019-04-29T01:19:36.487Z,9.80
2019-04-29T01:22:10.190Z,9.80
2019-04-29T01:24:41.061Z,9.90
2019-04-29T01:27:31.368Z,9.80
2019-04-29T01:30:02.767Z,9.80
2019-04-29T01:32:39.559Z,9.70
2019-04-29T01:35:09.729Z,9.70
2019-04-29T01:37:46.134Z,9.70
2019-04-29T01:40:38.639Z,9.70
2019-04-29T01:43:09.306Z,9.70
2019-04-29T01:45:39.917Z,9.70
2019-04-29T01:48:10.252Z,9.70
2019-04-29T01:50:40.364Z,9.70
2019-04-29T01:53:10.677Z,9.70
2019-04-29T01:55:41.049Z,9.60
2019-04-29T01:58:11.712Z,9.60
2019-04-29T02:00:44.242Z,9.60
2019-04-29T02:03:14.763Z,9.60
2019-04-29T02:05:45.298Z,9.60
2019-04-29T02:08:15.414Z,9.60
2019-04-29T02:10:49.770Z,9.60
2019-04-29T02:13:20.363Z,9.60
2019-04-29T02:15:51.439Z,9.60
2019-04-29T02:18:22.083Z,9.40
2019-04-29T02:20:53.798Z,9.40
2019-04-29T02:23:47.445Z,9.40
2019-04-29T02:26:17.647Z,9.40
2019-04-29T02:28:47.737Z,9.40
2019-04-29T02:31:38.712Z,9.50
2019-04-29T02:34:09.511Z,9.50
2019-04-29T02:36:39.690Z,9.60
2019-04-29T02:39:28.630Z,9.50
2019-04-29T02:42:11.277Z,9.50
2019-04-29T02:44:41.708Z,9.60
2019-04-29T02:47:12.034Z,9.60
2019-04-29T02:49:42.522Z,9.60
2019-04-29T02:52:14.981Z,9.60
2019-04-29T02:54:45.953Z,9.50
2019-04-29T02:57:34.083Z,9.50
2019-04-29T03:00:23.891Z,9.50
2019-04-29T03:03:00.507Z,9.50
2019-04-29T03:05:49.933Z,9.40
2019-04-29T03:08:27.827Z,9.40
2019-04-29T03:10:58.586Z,9.40
2019-04-29T03:13:35.398Z,9.40
2019-04-29T03:16:05.897Z,9.40
2019-04-29T03:18:38.166Z,9.40
2019-04-29T03:21:22.348Z,9.30
2019-04-29T03:23:53.163Z,9.30
2019-04-29T03:26:24.244Z,9.30
2019-04-29T03:28:54.809Z,9.40
2019-04-29T03:31:25.141Z,9.40
2019-04-29T03:33:55.676Z,9.40
2019-04-29T03:36:33.197Z,9.40
2019-04-29T03:39:09.228Z,9.40
2019-04-29T03:41:41.828Z,9.40
2019-04-29T03:44:12.153Z,9.40
2019-04-29T03:46:42.703Z,9.30
2019-04-29T03:49:13.170Z,9.40
2019-04-29T03:51:43.902Z,9.40
2019-04-29T03:54:14.428Z,9.40
2019-04-29T03:56:45.500Z,9.40
2019-04-29T03:59:15.937Z,9.40
2019-04-29T04:01:57.533Z,9.40
2019-04-29T04:04:45.774Z,9.40
2019-04-29T04:07:37.513Z,9.50
2019-04-29T04:10:08.163Z,9.50
2019-04-29T04:12:38.607Z,9.60
2019-04-29T04:15:09.452Z,9.50
2019-04-29T04:17:45.848Z,9.50
2019-04-29T04:20:16.783Z,9.60
2019-04-29T04:22:48.033Z,9.60
2019-04-29T04:25:19.245Z,9.60
2019-04-29T04:27:50.298Z,9.60
2019-04-29T04:30:20.961Z,9.60
2019-04-29T04:32:51.207Z,9.60
2019-04-29T04:35:21.630Z,9.60
2019-04-29T04:37:52.289Z,9.70
2019-04-29T04:40:28.774Z,9.70
2019-04-29T04:42:59.089Z,9.80
2019-04-29T04:45:30.070Z,9.70
2019-04-29T04:48:01.114Z,9.70
2019-04-29T04:50:31.755Z,9.70
2019-04-29T04:53:02.147Z,9.70
2019-04-29T04:55:34.218Z,9.70
2019-04-29T04:58:05.019Z,9.80
2019-04-29T05:00:37.142Z,9.90
2019-04-29T05:03:08.838Z,9.90
2019-04-29T05:05:42.384Z,9.90
2019-04-29T05:08:11.063Z,9.90
2019-04-29T05:10:41.766Z,9.80
2019-04-29T05:13:12.428Z,9.80
2019-04-29T05:15:42.855Z,9.80
2019-04-29T05:18:13.246Z,9.90
2019-04-29T05:20:43.623Z,9.80
2019-04-29T05:23:14.266Z,9.90
2019-04-29T05:25:45.614Z,9.80
2019-04-29T05:28:16.352Z,9.90
2019-04-29T05:30:47.424Z,10.00
2019-04-29T05:33:17.872Z,10.00
2019-04-29T05:36:03.736Z,10.00
2019-04-29T05:38:38.732Z,10.00
2019-04-29T05:41:09.170Z,10.00
2019-04-29T05:43:51.267Z,9.90
2019-04-29T05:46:44.687Z,10.00
2019-04-29T05:49:17.738Z,10.00
2019-04-29T05:52:01.938Z,10.00
2019-04-29T05:54:34.221Z,10.10
2019-04-29T05:57:04.827Z,10.10
2019-04-29T05:59:35.232Z,10.20
2019-04-29T06:02:05.469Z,10.10
2019-04-29T06:04:35.848Z,10.20
2019-04-29T06:07:06.228Z,10.10
2019-04-29T06:09:37.018Z,10.10
2019-04-29T06:12:07.124Z,10.20
2019-04-29T06:14:37.510Z,10.30
2019-04-29T06:17:14.677Z,10.40
2019-04-29T06:19:45.113Z,10.40
2019-04-29T06:22:15.444Z,10.30
2019-04-29T06:24:45.801Z,10.30
2019-04-29T06:27:17.651Z,10.30
2019-04-29T06:29:48.863Z,10.40
2019-04-29T06:32:25.061Z,10.30
2019-04-29T06:34:54.932Z,10.20
2019-04-29T06:37:25.270Z,10.20
2019-04-29T06:39:55.619Z,10.20
2019-04-29T06:42:25.932Z,10.20
2019-04-29T06:44:56.047Z,10.10
2019-04-29T06:47:26.122Z,10.20
2019-04-29T06:49:56.214Z,10.20
2019-04-29T06:52:26.274Z,10.30
2019-04-29T06:54:56.366Z,10.30
2019-04-29T06:57:26.455Z,10.30
2019-04-29T06:59:56.870Z,10.40
2019-04-29T07:02:27.289Z,10.50
2019-04-29T07:04:57.402Z,10.40
2019-04-29T07:07:27.960Z,10.50
2019-04-29T07:09:58.273Z,10.60
2019-04-29T07:12:28.631Z,10.60
2019-04-29T07:14:58.967Z,10.70
2019-04-29T07:17:29.308Z,10.60
2019-04-29T07:20:01.992Z,10.50
2019-04-29T07:22:32.236Z,10.50
2019-04-29T07:25:04.998Z,10.50
2019-04-29T07:27:42.932Z,10.50
2019-04-29T07:30:09.404Z,10.50
2019-04-29T07:32:41.939Z,10.50
2019-04-29T07:35:12.273Z,10.60
2019-04-29T07:37:42.842Z,10.60
2019-04-29T07:40:15.331Z,10.60
2019-04-29T07:42:47.130Z,10.70
2019-04-29T07:45:43.937Z,10.80
2019-04-29T07:48:09.293Z,10.90
2019-04-29T07:51:04.132Z,11.00
2019-04-29T07:53:44.716Z,11.00
2019-04-29T07:56:08.206Z,11.00
2019-04-29T07:58:39.854Z,11.00
2019-04-29T08:01:10.466Z,11.10
2019-04-29T08:03:40.708Z,11.20
2019-04-29T08:06:11.768Z,11.20
2019-04-29T08:08:54.310Z,11.20
2019-04-29T08:11:14.689Z,11.30
2019-04-29T08:13:45.033Z,11.10
2019-04-29T08:16:17.207Z,11.10
2019-04-29T08:18:49.483Z,11.20
2019-04-29T08:21:20.187Z,11.20
2019-04-29T08:23:50.527Z,11.10
2019-04-29T08:26:21.038Z,11.10
2019-04-29T08:28:52.989Z,11.30
2019-04-29T08:32:06.005Z,11.10
2019-04-29T08:34:40.932Z,11.10
2019-04-29T08:37:14.772Z,11.00
2019-04-29T08:40:14.728Z,11.00
2019-04-29T08:42:46.559Z,11.10
2019-04-29T08:45:39.054Z,11.20
2019-04-29T08:48:10.636Z,11.20
2019-04-29T08:50:53.218Z,11.20
2019-04-29T08:53:23.321Z,11.10
2019-04-29T08:55:54.996Z,11.20
2019-04-29T08:58:25.096Z,11.40
2019-04-29T09:00:59.845Z,11.60
2019-04-29T09:03:39.975Z,11.50
2019-04-29T09:06:05.498Z,11.40
2019-04-29T09:08:34.597Z,11.30
2019-04-29T09:11:13.074Z,11.30
2019-04-29T09:13:40.834Z,11.30
2019-04-29T09:16:11.496Z,11.20
2019-04-29T09:18:43.125Z,11.20
2019-04-29T09:21:30.630Z,11.30
2019-04-29T09:24:02.011Z,11.20
2019-04-29T09:26:37.839Z,11.20
2019-04-29T09:29:26.134Z,11.40
2019-04-29T09:31:56.791Z,11.40
2019-04-29T09:34:27.675Z,11.50
2019-04-29T09:37:00.744Z,11.60
2019-04-29T09:39:43.075Z,11.60
2019-04-29T09:42:30.867Z,11.80
2019-04-29T09:45:22.105Z,11.80
2019-04-29T09:47:50.870Z,11.80
2019-04-29T09:50:21.090Z,11.60
2019-04-29T09:52:51.283Z,11.60
2019-04-29T09:55:22.416Z,11.30
2019-04-29T09:57:53.184Z,11.40
2019-04-29T10:00:46.296Z,11.60
2019-04-29T10:03:25.206Z,11.50
2019-04-29T10:06:06.006Z,11.60
2019-04-29T10:08:36.111Z,11.70
2019-04-29T10:11:07.337Z,11.70
2019-04-29T10:13:37.499Z,11.80
2019-04-29T10:16:15.026Z,11.90
2019-04-29T10:18:53.448Z,11.80
2019-04-29T10:21:23.732Z,11.70
2019-04-29T10:23:53.837Z,12.00
2019-04-29T10:26:33.394Z,12.00
2019-04-29T10:29:08.346Z,11.90
2019-04-29T10:31:46.456Z,11.90
2019-04-29T10:34:17.097Z,11.90
2019-04-29T10:36:57.634Z,12.10
2019-04-29T10:39:42.336Z,12.20
2019-04-29T10:42:13.250Z,12.00
2019-04-29T10:45:01.345Z,12.00
2019-04-29T10:48:02.603Z,12.10
2019-04-29T10:50:37.990Z,11.90
2019-04-29T10:53:14.935Z,11.70
2019-04-29T10:55:44.681Z,11.70
2019-04-29T10:58:35.680Z,11.80
2019-04-29T11:02:01.646Z,11.90
2019-04-29T11:04:36.277Z,11.80
2019-04-29T11:07:26.550Z,12.00
2019-04-29T11:10:24.451Z,12.00
2019-04-29T11:12:48.197Z,11.90
2019-04-29T11:15:37.518Z,12.00
2019-04-29T11:18:11.938Z,11.90
2019-04-29T11:20:48.758Z,11.90
2019-04-29T11:23:31.402Z,11.90
2019-04-29T11:26:29.171Z,12.00
2019-04-29T11:29:01.070Z,12.00
2019-04-29T11:31:33.040Z,12.20
2019-04-29T11:34:17.963Z,12.10
2019-04-29T11:36:48.677Z,12.30
2019-04-29T11:39:19.851Z,12.40
2019-04-29T11:41:54.691Z,12.40
2019-04-29T11:44:26.554Z,12.60
2019-04-29T11:46:56.892Z,12.80
2019-04-29T11:49:39.227Z,12.80
2019-04-29T11:52:10.342Z,12.70
2019-04-29T11:54:41.135Z,12.70
2019-04-29T11:57:17.152Z,12.80
2019-04-29T12:00:03.754Z,13.00
2019-04-29T12:03:07.012Z,13.20
2019-04-29T12:05:44.890Z,13.60
2019-04-29T12:08:16.974Z,13.50
2019-04-29T12:11:09.047Z,13.60
2019-04-29T12:14:44.102Z,13.70
2019-04-29T12:17:48.613Z,13.70
2019-04-29T12:20:41.449Z,13.80
2019-04-29T12:23:15.736Z,13.80
2019-04-29T12:25:46.642Z,14.00
2019-04-29T12:28:20.704Z,14.00
2019-04-29T12:30:53.975Z,14.30
2019-04-29T12:33:36.733Z,14.50
2019-04-29T12:36:16.574Z,14.50
2019-04-29T12:39:42.436Z,14.60
2019-04-29T12:42:24.293Z,14.70
2019-04-29T12:44:58.761Z,14.70
2019-04-29T12:47:31.617Z,14.90
2019-04-29T12:50:02.695Z,14.90
2019-04-29T12:52:33.241Z,15.00
2019-04-29T12:55:19.739Z,14.90
2019-04-29T12:57:37.342Z,15.10
2019-04-29T13:00:09.841Z,15.30
2019-04-29T13:03:01.540Z,15.40
2019-04-29T13:05:40.533Z,15.30
2019-04-29T13:08:25.055Z,15.30
2019-04-29T13:10:59.137Z,15.60
2019-04-29T13:13:29.656Z,15.60
2019-04-29T13:16:20.821Z,15.90
2019-04-29T13:19:12.529Z,16.00
2019-04-29T13:21:39.947Z,15.60
2019-04-29T13:24:22.936Z,15.70
2019-04-29T13:26:43.249Z,15.90
2019-04-29T13:29:26.225Z,16.00
2019-04-29T13:31:45.664Z,16.20
2019-04-29T13:34:24.774Z,16.30
2019-04-29T13:37:06.702Z,16.40
2019-04-29T13:39:39.912Z,16.00
2019-04-29T13:42:09.315Z,16.00
2019-04-29T13:44:45.973Z,16.00
2019-04-29T13:47:34.744Z,16.00
2019-04-29T13:50:19.093Z,16.20
2019-04-29T13:52:44.629Z,16.30
2019-04-29T13:55:29.630Z,16.50
2019-04-29T13:57:50.801Z,16.60
2019-04-29T14:00:40.222Z,16.60
2019-04-29T14:03:14.109Z,16.50
2019-04-29T14:05:44.586Z,16.40
2019-04-29T14:08:24.171Z,16.50
2019-04-29T14:10:53.293Z,16.50
2019-04-29T14:13:23.710Z,16.70
2019-04-29T14:15:54.007Z,16.70
2019-04-29T14:18:24.778Z,16.80
2019-04-29T14:21:13.798Z,16.60
2019-04-29T14:23:47.503Z,16.60
2019-04-29T14:26:19.621Z,16.90
2019-04-29T14:28:52.018Z,16.90
2019-04-29T14:31:24.529Z,16.80
2019-04-29T14:34:04.231Z,16.70
2019-04-29T14:36:34.762Z,16.60
2019-04-29T14:39:12.971Z,16.60
2019-04-29T14:41:45.906Z,16.60
2019-04-29T14:44:42.398Z,16.60
2019-04-29T14:47:47.951Z,16.80
2019-04-29T14:50:22.050Z,16.80
2019-04-29T14:52:53.073Z,16.70
2019-04-29T14:55:27.921Z,16.80
2019-04-29T14:57:59.955Z,16.60
2019-04-29T15:00:52.667Z,16.60
2019-04-29T15:03:25.227Z,17.00
2019-04-29T15:05:55.671Z,17.10
2019-04-29T15:08:25.962Z,17.00
2019-04-29T15:11:04.222Z,17.00
2019-04-29T15:13:35.667Z,17.50
2019-04-29T15:16:15.520Z,17.90
2019-04-29T15:19:24.471Z,18.40
2019-04-29T15:22:02.098Z,18.80
2019-04-29T15:24:34.492Z,19.60
2019-04-29T15:27:05.046Z,20.20
2019-04-29T15:29:36.571Z,20.30
2019-04-29T15:32:12.947Z,19.90
2019-04-29T15:34:48.120Z,19.70
2019-04-29T15:37:25.649Z,20.20
2019-04-29T15:39:58.427Z,20.30
2019-04-29T15:42:37.911Z,20.00
2019-04-29T15:45:08.787Z,19.90
2019-04-29T15:47:45.699Z,20.10
2019-04-29T15:50:19.079Z,19.90
2019-04-29T15:52:49.705Z,20.20
2019-04-29T15:55:22.847Z,20.20
2019-04-29T15:57:57.199Z,20.00
2019-04-29T16:00:36.688Z,20.70
2019-04-29T16:02:59.770Z,20.60
2019-04-29T16:06:04.453Z,20.50
2019-04-29T16:11:42.512Z,18.50
2019-04-29T16:14:26.199Z,18.00
2019-04-29T16:17:07.127Z,17.40
2019-04-29T16:19:37.607Z,17.50
2019-04-29T16:22:13.092Z,17.30
2019-04-29T16:24:46.070Z,16.80
2019-04-29T16:27:16.190Z,16.50
2019-04-29T16:29:51.603Z,17.00
2019-04-29T16:32:29.351Z,17.80
2019-04-29T16:34:59.582Z,17.30
2019-04-29T16:37:32.001Z,17.80
2019-04-29T16:40:07.126Z,18.30
2019-04-29T16:42:51.978Z,18.40
2019-04-29T16:45:26.531Z,18.90
2019-04-29T16:48:01.159Z,18.80
2019-04-29T16:50:37.024Z,18.50
2019-04-29T16:53:04.653Z,17.70
2019-04-29T16:58:16.407Z,17.10
2019-04-29T17:00:46.750Z,16.90
2019-04-29T17:03:14.640Z,16.70
2019-04-29T17:05:47.796Z,16.20
2019-04-29T17:08:20.264Z,15.90
2019-04-29T17:11:00.088Z,15.80
2019-04-29T17:13:36.464Z,15.60
2019-04-29T17:16:12.023Z,15.40
2019-04-29T17:18:42.447Z,15.20
2019-04-29T17:21:13.030Z,15.00
2019-04-29T17:23:43.634Z,14.90
2019-04-29T17:26:14.650Z,14.90
2019-04-29T17:28:58.809Z,14.80
2019-04-29T17:31:57.262Z,14.70
2019-04-29T17:34:55.955Z,14.60
2019-04-29T17:35:17.816Z,17.10
2019-04-29T17:37:04.459Z,14.50
2019-04-29T17:39:35.850Z,14.50
2019-04-29T17:42:23.340Z,14.30
2019-04-29T17:45:12.250Z,14.30
2019-04-29T17:48:05.687Z,14.20
2019-04-29T17:50:46.414Z,13.90
2019-04-29T17:53:35.448Z,13.80
2019-04-29T17:56:24.895Z,13.60
2019-04-29T17:58:58.516Z,13.40
2019-04-29T18:01:46.964Z,13.30
2019-04-29T18:04:29.213Z,13.20
2019-04-29T18:07:21.011Z,13.00
2019-04-29T18:10:02.503Z,12.80
2019-04-29T18:12:37.665Z,12.70
2019-04-29T18:15:06.092Z,12.60
2019-04-29T18:17:37.713Z,12.50
2019-04-29T18:20:36.566Z,12.40
2019-04-29T18:23:25.203Z,12.20
2019-04-29T18:26:05.596Z,12.00
2019-04-29T18:28:37.394Z,11.90
2019-04-29T18:31:10.598Z,11.70
2019-04-29T18:33:40.970Z,11.60
2019-04-29T18:36:21.878Z,11.50
2019-04-29T18:38:48.763Z,11.50
2019-04-29T18:41:24.835Z,11.40
2019-04-29T18:43:50.762Z,11.30
2019-04-29T18:46:21.398Z,11.10
2019-04-29T18:48:51.472Z,11.10
2019-04-29T18:51:25.630Z,11.10
2019-04-29T18:54:06.240Z,11.00
2019-04-29T18:56:37.822Z,10.90
2019-04-29T18:59:08.198Z,10.90
2019-04-29T19:01:40.682Z,10.70
2019-04-29T19:04:32.785Z,10.70
2019-04-29T19:07:09.488Z,10.60
2019-04-29T19:09:55.504Z,10.70
2019-04-29T19:12:31.425Z,10.50
2019-04-29T19:15:07.199Z,10.40
2019-04-29T19:17:40.075Z,10.40
2019-04-29T19:20:18.647Z,10.30
2019-04-29T19:22:55.755Z,10.20
2019-04-29T19:25:26.031Z,10.20
2019-04-29T19:27:57.192Z,10.10
2019-04-29T19:30:29.353Z,10.10
2019-04-29T19:33:05.884Z,10.00
2019-04-29T19:35:45.058Z,10.00
2019-04-29T19:38:16.862Z,9.90
2019-04-29T19:40:48.164Z,9.80
2019-04-29T19:43:19.008Z,9.70
2019-04-29T19:45:58.365Z,9.70
2019-04-29T19:48:31.082Z,9.70
2019-04-29T19:51:18.532Z,9.60
2019-04-29T19:53:37.731Z,9.60
2019-04-29T19:56:07.380Z,9.50
2019-04-29T19:58:38.117Z,9.50
2019-04-29T20:01:23.320Z,9.40
2019-04-29T20:04:01.287Z,9.40
2019-04-29T20:06:32.483Z,9.40
2019-04-29T20:09:16.068Z,9.20
2019-04-29T20:11:39.276Z,9.20
2019-04-29T20:14:19.501Z,9.20
2019-04-29T20:17:09.634Z,9.10
2019-04-29T20:19:46.070Z,9.00
2019-04-29T20:22:16.907Z,8.90
2019-04-29T20:24:50.590Z,8.90
2019-04-29T20:27:20.565Z,8.90
2019-04-29T20:29:52.458Z,8.80
2019-04-29T20:32:30.170Z,8.80
2019-04-29T20:35:08.369Z,8.80
2019-04-29T20:37:38.559Z,8.70
2019-04-29T20:40:16.032Z,8.60
2019-04-29T20:42:49.506Z,8.60
2019-04-29T20:45:28.901Z,8.60
2019-04-29T20:47:59.784Z,8.60
2019-04-29T20:50:35.482Z,8.60
2019-04-29T20:53:18.300Z,8.40
2019-04-29T20:55:49.769Z,8.40
2019-04-29T20:58:23.648Z,8.40
2019-04-29T21:01:03.113Z,8.30
2019-04-29T21:03:32.223Z,8.30
2019-04-29T21:06:04.570Z,8.20
2019-04-29T21:08:38.260Z,8.30
2019-04-29T21:11:20.786Z,8.20
2019-04-29T21:13:56.167Z,8.10
2019-04-29T21:16:30.759Z,8.10
2019-04-29T21:19:08.469Z,8.00
2019-04-29T21:21:45.831Z,7.90
2019-04-29T21:24:18.652Z,7.90
2019-04-29T21:26:48.025Z,7.90
2019-04-29T21:29:19.355Z,7.90
2019-04-29T21:31:58.609Z,7.90
2019-04-29T21:34:25.514Z,7.80
2019-04-29T21:37:23.014Z,7.80
2019-04-29T21:40:07.093Z,7.80
2019-04-29T21:42:43.365Z,7.60
2019-04-29T21:45:17.467Z,7.60
2019-04-29T21:47:53.462Z,7.70
2019-04-29T21:50:27.180Z,7.70
2019-04-29T21:53:01.710Z,7.60
2019-04-29T21:55:29.483Z,7.50
2019-04-29T21:58:01.172Z,7.40
2019-04-29T22:00:31.645Z,7.40
2019-04-29T22:03:05.332Z,7.40
2019-04-29T22:05:35.648Z,7.40
2019-04-29T22:08:16.259Z,7.40
2019-04-29T22:10:45.740Z,7.30
2019-04-29T22:13:15.907Z,7.40
2019-04-29T22:15:46.541Z,7.30
2019-04-29T22:18:18.079Z,7.30
2019-04-29T22:20:51.227Z,7.30
2019-04-29T22:23:21.547Z,7.20
2019-04-29T22:25:51.865Z,7.20
2019-04-29T22:28:25.189Z,7.20
2019-04-29T22:31:11.551Z,7.10
2019-04-29T22:33:41.622Z,7.20
2019-04-29T22:36:14.772Z,7.10
2019-04-29T22:38:52.283Z,7.00
2019-04-29T22:41:36.780Z,7.00
2019-04-29T22:44:07.520Z,6.90
2019-04-29T22:46:40.118Z,6.90
2019-04-29T22:49:18.175Z,6.90
2019-04-29T22:51:54.634Z,6.90
2019-04-29T22:54:23.567Z,6.90
2019-04-29T22:56:56.723Z,6.80
2019-04-29T22:59:30.333Z,6.70
2019-04-29T23:02:01.011Z,6.70
2019-04-29T23:04:32.613Z,6.80
2019-04-29T23:07:02.697Z,6.70
2019-04-29T23:09:46.277Z,6.60
2019-04-29T23:12:18.557Z,6.60
2019-04-29T23:14:47.039Z,6.60
2019-04-29T23:17:18.812Z,6.60
2019-04-29T23:19:52.001Z,6.60
2019-04-29T23:22:41.227Z,6.60
2019-04-29T23:25:16.269Z,6.60
2019-04-29T23:27:48.460Z,6.50
2019-04-29T23:30:25.069Z,6.60
2019-04-29T23:32:56.137Z,6.60
2019-04-29T23:35:26.622Z,6.60
2019-04-29T23:38:03.902Z,6.60
2019-04-29T23:40:28.934Z,6.50
2019-04-29T23:42:59.507Z,6.50
2019-04-29T23:45:29.819Z,6.50
2019-04-29T23:48:01.168Z,6.40
2019-04-29T23:50:31.243Z,6.50
2019-04-29T23:53:15.787Z,6.50
2019-04-29T23:55:46.719Z,6.40
2019-04-29T23:58:24.910Z,6.30
